createdAt,value
2022-08-11T00:03:43.274Z,66.52
2022-08-11T00:21:00.669Z,64.29
2022-08-11T00:26:08.085Z,62.76
2022-08-11T00:31:35.508Z,63.08
2022-08-11T00:37:05.671Z,61.89
2022-08-11T00:42:32.073Z,63.09
2022-08-11T00:47:42.813Z,62.73
2022-08-11T00:52:56.310Z,64.57
2022-08-11T00:58:37.531Z,65.62
2022-08-11T01:04:17.821Z,66.59
2022-08-11T01:15:40.127Z,65.79
2022-08-11T01:20:59.162Z,64.22
2022-08-11T01:26:31.530Z,66.67
2022-08-11T01:31:41.437Z,67.02
2022-08-11T01:37:18.598Z,67.14
2022-08-11T01:42:52.497Z,69.48
2022-08-11T01:48:16.169Z,68.73
2022-08-11T01:53:52.029Z,67.00
2022-08-11T01:59:14.820Z,66.88
2022-08-11T02:04:38.882Z,65.48
2022-08-11T02:10:26.892Z,65.92
2022-08-11T02:15:46.984Z,66.27
2022-08-11T02:21:16.941Z,66.35
2022-08-11T02:26:44.705Z,68.10
2022-08-11T02:32:31.281Z,68.03
2022-08-11T02:37:45.457Z,68.00
2022-08-11T02:42:49.374Z,68.79
2022-08-11T02:48:33.463Z,69.17
2022-08-11T02:53:58.392Z,69.19
2022-08-11T02:59:46.282Z,68.60
2022-08-11T03:05:04.986Z,69.39
2022-08-11T03:10:31.632Z,70.28
2022-08-11T03:16:35.499Z,70.22
2022-08-11T03:22:56.808Z,71.21
2022-08-11T03:28:29.009Z,72.22
2022-08-11T03:34:05.994Z,72.75
2022-08-11T03:39:35.661Z,72.68
2022-08-11T03:44:44.454Z,72.32
2022-08-11T03:50:20.542Z,70.70
2022-08-11T03:56:06.846Z,69.48
2022-08-11T04:01:37.683Z,71.95
2022-08-11T04:07:08.558Z,75.92
2022-08-11T04:12:45.652Z,69.29
2022-08-11T04:17:57.952Z,68.06
2022-08-11T04:24:36.676Z,67.02
2022-08-11T04:29:09.605Z,67.50
2022-08-11T04:34:24.842Z,67.03
2022-08-11T04:39:46.862Z,66.47
2022-08-11T04:45:26.730Z,66.02
2022-08-11T04:51:09.723Z,65.66
2022-08-11T04:56:44.004Z,65.16
2022-08-11T05:02:20.118Z,65.00
2022-08-11T05:08:03.991Z,63.87
2022-08-11T05:13:27.565Z,62.85
2022-08-11T05:18:52.438Z,62.56
2022-08-11T05:24:38.085Z,62.77
2022-08-11T05:30:27.459Z,62.50
2022-08-11T05:36:01.779Z,61.82
2022-08-11T05:41:26.563Z,62.61
2022-08-11T05:46:49.070Z,63.31
2022-08-11T05:52:12.671Z,63.61
2022-08-11T05:57:49.430Z,62.32
2022-08-11T06:02:57.448Z,60.98
2022-08-11T06:08:08.375Z,61.07
2022-08-11T06:13:17.230Z,61.59
2022-08-11T06:18:21.659Z,61.17
2022-08-11T06:23:31.071Z,62.09
2022-08-11T06:28:38.115Z,62.65
2022-08-11T06:33:55.951Z,61.51
2022-08-11T06:39:08.787Z,59.90
2022-08-11T06:44:14.752Z,58.13
2022-08-11T06:49:38.823Z,54.18
2022-08-11T06:54:51.794Z,48.73
2022-08-11T07:00:13.908Z,48.85
2022-08-11T07:05:36.365Z,46.55
2022-08-11T07:11:07.025Z,48.39
2022-08-11T07:16:14.042Z,47.33
2022-08-11T07:21:59.990Z,44.93
2022-08-11T07:27:28.753Z,46.24
2022-08-11T07:32:46.315Z,44.29
2022-08-11T07:38:01.791Z,42.69
2022-08-11T07:43:07.525Z,42.76
2022-08-11T07:48:31.206Z,47.57
2022-08-11T07:53:58.001Z,46.67
2022-08-11T07:59:18.965Z,44.85
2022-08-11T08:04:47.430Z,47.39
2022-08-11T08:10:15.886Z,47.99
2022-08-11T08:15:40.695Z,47.33
2022-08-11T08:20:47.605Z,46.72
2022-08-11T08:25:53.120Z,53.01
2022-08-11T08:30:57.743Z,55.07
2022-08-11T08:36:12.894Z,52.80
2022-08-11T08:41:22.932Z,54.68
2022-08-11T08:46:34.049Z,52.10
2022-08-11T08:52:01.691Z,49.52
2022-08-11T08:57:07.904Z,51.94
2022-08-11T09:02:13.276Z,52.63
2022-08-11T09:07:18.639Z,51.69
2022-08-11T09:12:35.755Z,50.58
2022-08-11T09:17:46.264Z,50.70
2022-08-11T09:24:07.300Z,51.47
2022-08-11T09:28:34.744Z,45.10
2022-08-11T09:33:37.925Z,44.52
2022-08-11T09:39:04.876Z,42.18
2022-08-11T09:44:29.359Z,44.62
2022-08-11T09:49:33.729Z,43.62
2022-08-11T09:54:38.288Z,42.10
2022-08-11T09:59:41.832Z,45.92
2022-08-11T10:04:46.736Z,43.56
2022-08-11T10:09:59.677Z,43.38
2022-08-11T10:15:26.650Z,44.19
2022-08-11T10:20:34.183Z,47.26
2022-08-11T10:25:56.792Z,49.13
2022-08-11T10:31:18.833Z,49.70
2022-08-11T10:36:22.816Z,53.65
2022-08-11T10:42:06.079Z,56.14
2022-08-11T10:47:31.036Z,56.10
2022-08-11T10:52:54.974Z,56.14
2022-08-11T10:58:17.521Z,57.85
2022-08-11T11:03:22.856Z,59.24
2022-08-11T11:08:50.010Z,61.92
2022-08-11T11:14:14.193Z,60.10
2022-08-11T11:19:21.053Z,61.12
2022-08-11T11:24:46.663Z,60.64
2022-08-11T11:30:08.708Z,62.00
2022-08-11T11:35:44.883Z,60.04
2022-08-11T11:41:09.704Z,55.64
2022-08-11T11:46:14.276Z,54.59
2022-08-11T11:51:17.972Z,53.72
2022-08-11T11:56:24.823Z,52.06
2022-08-11T12:01:28.940Z,52.84
2022-08-11T12:06:33.434Z,52.24
2022-08-11T12:11:59.985Z,53.91
2022-08-11T12:17:03.794Z,56.91
2022-08-11T12:22:26.529Z,55.87
2022-08-11T12:27:31.825Z,55.43
2022-08-11T12:32:37.048Z,56.17
2022-08-11T12:37:42.040Z,55.06
2022-08-11T12:43:08.174Z,58.78
2022-08-11T12:49:00.543Z,58.99
2022-08-11T12:54:17.475Z,59.05
2022-08-11T12:59:42.887Z,61.58
2022-08-11T13:04:59.521Z,63.34
2022-08-11T13:10:06.551Z,63.82
2022-08-11T13:15:26.398Z,63.76
2022-08-11T13:20:32.815Z,60.24
2022-08-11T13:25:36.566Z,59.34
2022-08-11T13:30:59.282Z,61.27
2022-08-11T13:36:03.984Z,63.11
2022-08-11T13:41:27.472Z,63.03
2022-08-11T13:46:31.690Z,63.62
2022-08-11T13:51:35.808Z,64.85
2022-08-11T13:56:45.589Z,65.07
2022-08-11T14:02:20.088Z,66.21
2022-08-11T14:07:23.022Z,64.97
2022-08-11T14:12:48.838Z,65.85
2022-08-11T14:18:03.489Z,62.72
2022-08-11T14:23:06.971Z,63.66
2022-08-11T14:28:32.504Z,63.88
2022-08-11T14:33:59.529Z,65.25
2022-08-11T14:39:04.534Z,66.23
2022-08-11T14:44:28.088Z,67.51
2022-08-11T14:49:35.034Z,71.45
2022-08-11T14:54:57.463Z,69.07
2022-08-11T15:00:04.279Z,70.22
2022-08-11T15:05:08.545Z,68.28
2022-08-11T15:10:13.506Z,70.65
2022-08-11T15:15:37.668Z,69.64
2022-08-11T15:20:59.993Z,69.27
2022-08-11T15:26:14.174Z,69.93
2022-08-11T15:31:28.450Z,73.04
2022-08-11T15:36:52.265Z,72.97
2022-08-11T15:42:22.021Z,74.53
2022-08-11T15:47:29.444Z,75.12
2022-08-11T15:52:43.989Z,75.33
2022-08-11T15:58:08.634Z,76.50
2022-08-11T16:04:06.448Z,76.14
2022-08-11T16:08:58.420Z,75.51
2022-08-11T16:14:25.532Z,74.54
2022-08-11T16:19:36.138Z,74.64
2022-08-11T16:27:04.287Z,73.16
2022-08-11T16:30:11.068Z,71.87
2022-08-11T16:35:36.456Z,70.74
2022-08-11T16:40:43.061Z,69.14
2022-08-11T16:46:05.151Z,68.95
2022-08-11T16:51:11.988Z,69.62
2022-08-11T16:56:19.782Z,69.04
2022-08-11T17:01:26.369Z,69.28
2022-08-11T17:06:48.857Z,68.09
2022-08-11T17:12:17.106Z,67.77
2022-08-11T17:17:38.016Z,68.34
2022-08-11T17:23:01.715Z,70.47
2022-08-11T17:28:07.060Z,70.28
2022-08-11T17:33:33.213Z,71.20
2022-08-11T17:38:39.501Z,72.21
2022-08-11T17:44:02.369Z,73.63
2022-08-11T17:49:08.042Z,74.85
2022-08-11T17:54:30.457Z,75.41
2022-08-11T17:59:53.557Z,76.44
2022-08-11T18:04:59.161Z,78.37
2022-08-11T18:10:25.730Z,80.75
2022-08-11T18:15:50.099Z,78.73
2022-08-11T18:21:18.558Z,79.42
2022-08-11T18:26:44.606Z,77.19
2022-08-11T18:32:10.483Z,73.89
2022-08-11T18:37:37.776Z,70.92
2022-08-11T18:43:03.974Z,69.42
2022-08-11T18:48:34.016Z,68.07
2022-08-11T18:54:00.590Z,68.30
2022-08-11T18:59:25.122Z,68.43
2022-08-11T19:04:48.929Z,69.01
2022-08-11T19:10:13.366Z,68.46
2022-08-11T19:15:37.668Z,67.82
2022-08-11T19:21:03.533Z,66.99
2022-08-11T19:26:27.598Z,68.59
2022-08-11T19:31:50.789Z,69.28
2022-08-11T19:37:13.607Z,70.48
2022-08-11T19:42:37.386Z,70.60
2022-08-11T19:48:30.247Z,70.65
2022-08-11T19:53:46.485Z,70.39
2022-08-11T19:59:10.639Z,70.78
2022-08-11T20:04:33.134Z,71.30
2022-08-11T20:10:05.766Z,71.71
2022-08-11T20:15:32.784Z,71.24
2022-08-11T20:21:01.476Z,73.50
2022-08-11T20:26:34.063Z,74.21
2022-08-11T20:31:57.559Z,74.66
2022-08-11T20:37:22.358Z,75.99
2022-08-11T20:49:10.626Z,75.16
2022-08-11T20:55:00.850Z,75.48
2022-08-11T21:00:39.258Z,76.02
2022-08-11T21:06:34.942Z,77.00
2022-08-11T21:12:03.756Z,77.67
2022-08-11T21:17:28.493Z,77.58
2022-08-11T21:23:04.963Z,78.38
2022-08-11T21:28:32.003Z,79.04
2022-08-11T21:33:57.725Z,78.40
2022-08-11T21:39:24.978Z,78.90
2022-08-11T21:44:49.642Z,79.24
2022-08-11T21:50:11.622Z,79.34
2022-08-11T21:55:34.461Z,79.44
2022-08-11T22:00:57.514Z,80.09
2022-08-11T22:06:20.047Z,80.65
2022-08-11T22:11:43.374Z,80.47
2022-08-11T22:17:05.389Z,80.23
2022-08-11T22:22:30.407Z,80.09
2022-08-11T22:27:52.990Z,79.71
2022-08-11T22:33:17.535Z,80.14
2022-08-11T22:38:51.537Z,80.59
2022-08-11T22:44:13.855Z,80.98
2022-08-11T22:49:57.067Z,81.47
2022-08-11T22:55:19.426Z,82.69
2022-08-11T23:00:42.104Z,83.07
2022-08-11T23:06:05.129Z,82.98
2022-08-11T23:11:27.050Z,83.42
2022-08-11T23:17:10.106Z,83.25
2022-08-11T23:22:36.830Z,83.47
2022-08-11T23:28:12.516Z,84.24
2022-08-11T23:33:36.810Z,84.43
2022-08-11T23:38:58.487Z,83.83
2022-08-11T23:44:21.754Z,84.62
2022-08-11T23:49:46.595Z,84.91
2022-08-11T23:55:09.110Z,85.18
